Time;durP1;ratioP1;P1;durP2;ratioP2;P2;SDS_P1;SDS_P2;PMS_P1;PMS_P2;Temp;Humidity;BMP_temperature;BMP_pressure;BME280_temperature;BME280_humidity;BME280_pressure;Samples;Min_cycle;Max_cycle;Signal;HPM_P1;HPM_P2
2022/08/12 00:44:38;;;;;;;;;9.75;9.00;;;;;18.98;41.50;100220.16;5139440;27;8977;-63
2022/08/12 00:47:06;;;;;;;;;18.00;17.50;;;;;18.96;41.80;100224.06;5139163;27;8850;-62
2022/08/12 00:49:50;;;;;;;;;16.25;16.00;;;;;18.95;41.65;100223.22;5123427;27;8906;-61
2022/08/12 00:52:18;;;;;;;;;16.25;16.25;;;;;18.95;42.12;100212.41;5139259;27;8845;-62
2022/08/12 00:54:46;;;;;;;;;21.00;18.00;;;;;18.96;41.58;100216.78;5139092;27;8832;-63
2022/08/12 00:57:14;;;;;;;;;16.00;16.00;;;;;18.97;41.99;100223.06;5138989;27;8837;-62
2022/08/12 00:59:41;;;;;;;;;16.00;13.00;;;;;18.98;42.14;100222.84;5138800;27;8826;-62
2022/08/12 01:02:09;;;;;;;;;15.50;15.00;;;;;18.95;42.07;100220.50;5138725;27;8837;-62
2022/08/12 01:13:02;;;;;;;;;14.75;13.50;;;;;18.71;42.34;100225.03;5138323;27;8868;-62
2022/08/12 01:15:45;;;;;;;;;15.75;15.75;;;;;18.63;42.25;100227.72;5138774;27;8837;-62
2022/08/12 01:18:13;;;;;;;;;18.75;17.25;;;;;18.56;43.20;100224.84;5138809;27;8964;-62
2022/08/12 01:20:41;;;;;;;;;19.00;15.25;;;;;18.51;42.62;100229.91;5138177;27;8830;-61
2022/08/12 01:23:08;;;;;;;;;16.25;15.75;;;;;18.46;42.99;100221.47;5138407;27;8848;-62
2022/08/12 01:25:36;;;;;;;;;17.00;16.00;;;;;18.42;43.34;100222.81;5138414;27;8840;-60
2022/08/12 01:28:22;;;;;;;;;18.25;18.00;;;;;18.40;43.07;100223.97;5138363;27;8833;-62
2022/08/12 01:30:50;;;;;;;;;20.75;19.00;;;;;18.37;42.97;100227.00;5137569;27;9011;-61
2022/08/12 01:33:19;;;;;;;;;18.75;18.25;;;;;18.35;43.13;100221.75;5138696;27;8834;-62
2022/08/12 01:35:47;;;;;;;;;17.25;15.75;;;;;18.33;43.29;100223.78;5138161;27;8954;-65
2022/08/12 01:38:34;;;;;;;;;17.75;16.50;;;;;18.29;43.07;100219.69;5138276;27;8901;-62
2022/08/12 01:41:02;;;;;;;;;10.00;9.25;;;;;18.26;43.16;100216.47;5138418;27;8954;-61
2022/08/12 01:43:30;;;;;;;;;23.75;22.50;;;;;18.21;43.71;100216.97;5137615;27;8822;-61
2022/08/12 01:45:58;;;;;;;;;19.25;18.50;;;;;18.15;43.56;100216.78;5138425;27;8864;-62
2022/08/12 01:48:25;;;;;;;;;14.50;13.75;;;;;18.10;43.78;100222.69;5138000;27;9472;-62
2022/08/12 01:50:53;;;;;;;;;15.75;15.75;;;;;18.04;43.98;100209.84;5138210;27;8962;-62
2022/08/12 01:53:27;;;;;;;;;14.25;13.25;;;;;17.98;43.67;100209.66;5138466;27;8830;-62
2022/08/12 01:56:15;;;;;;;;;16.00;16.00;;;;;17.90;44.04;100212.31;5137691;27;8826;-61
2022/08/12 02:01:24;;;;;;;;;15.50;14.00;;;;;17.78;44.12;100217.13;5136749;27;8853;-62
2022/08/12 02:12:33;;;;;;;;;12.00;9.50;;;;;17.55;44.83;100210.59;5137679;27;8859;-61
2022/08/12 02:15:01;;;;;;;;;12.00;11.50;;;;;17.50;44.60;100215.63;5137736;27;8910;-61
2022/08/12 02:17:29;;;;;;;;;12.50;12.50;;;;;17.47;44.98;100221.31;5137830;27;8881;-61
2022/08/12 02:20:16;;;;;;;;;14.25;13.50;;;;;17.45;45.09;100217.94;5137333;27;9527;-62
2022/08/12 02:22:44;;;;;;;;;18.50;17.50;;;;;17.44;44.67;100218.97;5136718;27;8859;-62
2022/08/12 02:25:12;;;;;;;;;17.00;16.00;;;;;17.45;44.69;100223.34;5136810;27;8837;-63
2022/08/12 02:27:40;;;;;;;;;16.50;16.00;;;;;17.47;44.85;100224.00;5137068;27;8968;-61
2022/08/12 02:30:07;;;;;;;;;15.33;14.00;;;;;17.47;44.90;100215.94;5137607;27;8826;-62
2022/08/12 02:32:35;;;;;;;;;19.25;17.75;;;;;17.46;45.01;100218.81;5136589;27;9536;-61
2022/08/12 02:35:03;;;;;;;;;16.75;15.75;;;;;17.42;44.65;100226.38;5136932;27;8838;-62
2022/08/12 02:37:30;;;;;;;;;16.00;14.00;;;;;17.37;44.98;100231.38;5134189;27;8826;-61
2022/08/12 02:39:59;;;;;;;;;14.75;13.00;;;;;17.34;45.34;100228.97;5120705;27;8814;-61
2022/08/12 02:42:27;;;;;;;;;13.50;12.75;;;;;17.28;45.29;100218.81;5115938;28;8807;-61
2022/08/12 02:44:56;;;;;;;;;19.75;18.00;;;;;17.21;45.36;100224.97;5116776;28;8843;-65
2022/08/12 02:47:24;;;;;;;;;18.75;15.25;;;;;17.15;45.18;100231.84;5115981;27;8867;-61
2022/08/12 02:50:12;;;;;;;;;12.00;12.00;;;;;17.11;45.12;100222.41;5130979;27;8818;-64
2022/08/12 02:52:39;;;;;;;;;21.33;18.33;;;;;17.09;45.73;100221.69;5136349;27;8812;-61
2022/08/12 02:55:08;;;;;;;;;17.00;15.00;;;;;17.06;45.90;100222.03;5136485;27;8897;-62
2022/08/12 02:57:35;;;;;;;;;16.00;13.00;;;;;17.07;45.72;100225.53;5124974;27;8824;-61
2022/08/12 03:00:06;;;;;;;;;15.25;15.25;;;;;17.07;45.47;100225.53;5115292;28;8969;-62
2022/08/12 03:02:34;;;;;;;;;16.25;13.00;;;;;17.06;45.69;100227.41;5115070;28;8819;-61
2022/08/12 03:05:02;;;;;;;;;18.25;16.50;;;;;17.10;45.45;100215.31;5115437;28;8974;-62
2022/08/12 03:07:30;;;;;;;;;17.75;15.25;;;;;17.12;45.20;100217.84;5124016;27;8820;-61
2022/08/12 03:10:18;;;;;;;;;17.00;15.50;;;;;17.05;45.64;100223.03;5135613;27;8910;-62
2022/08/12 03:13:05;;;;;;;;;15.25;15.00;;;;;16.96;45.87;100223.09;5136434;27;8844;-62
2022/08/12 03:15:34;;;;;;;;;13.25;12.00;;;;;16.86;46.00;100228.56;5136004;27;8826;-61
2022/08/12 03:18:02;;;;;;;;;15.75;15.50;;;;;16.78;46.23;100222.28;5122796;28;8962;-62
2022/08/12 03:20:49;;;;;;;;;14.25;13.50;;;;;16.69;46.18;100224.03;5115578;28;9947;-62
2022/08/12 03:23:17;;;;;;;;;12.25;12.00;;;;;16.64;46.44;100220.13;5116185;28;8857;-62
2022/08/12 03:25:57;;;;;;;;;15.75;15.00;;;;;16.59;46.39;100223.28;5100203;28;8878;-62
2022/08/12 03:31:10;;;;;;;;;16.00;15.50;;;;;16.56;46.60;100223.56;5136687;27;8841;-62
2022/08/12 03:33:38;;;;;;;;;13.50;12.50;;;;;16.55;46.38;100227.25;5136577;27;8833;-61
2022/08/12 03:36:06;;;;;;;;;17.00;14.25;;;;;16.55;46.52;100221.06;5136631;27;8852;-62
2022/08/12 03:38:36;;;;;;;;;13.50;13.50;;;;;16.54;46.85;100225.56;5118369;28;8828;-62
2022/08/12 04:00:23;;;;;;;;;15.75;13.50;;;;;16.44;46.88;100230.19;5119355;28;8867;-61
2022/08/12 04:02:57;;;;;;;;;16.00;14.00;;;;;16.43;46.59;100233.03;5119581;28;8824;-62
2022/08/12 04:05:25;;;;;;;;;15.00;15.00;;;;;16.44;46.83;100232.03;5119244;28;9084;-61
2022/08/12 04:08:13;;;;;;;;;14.75;14.00;;;;;16.43;46.84;100231.19;5121401;27;8876;-62
2022/08/12 04:13:24;;;;;;;;;13.00;12.50;;;;;16.38;46.92;100238.84;5139081;27;8856;-62
2022/08/12 04:15:51;;;;;;;;;16.00;16.00;;;;;16.35;46.76;100232.91;5139234;27;8834;-62
2022/08/12 04:18:19;;;;;;;;;16.50;14.25;;;;;16.34;47.37;100239.28;5136594;27;8847;-62
2022/08/12 04:20:48;;;;;;;;;9.50;7.50;;;;;16.33;47.56;100238.41;5119249;28;8849;-61
2022/08/12 04:23:16;;;;;;;;;13.25;13.00;;;;;16.33;46.84;100241.09;5118931;28;8835;-62
2022/08/12 04:25:44;;;;;;;;;17.00;14.50;;;;;16.34;46.87;100240.09;5119017;28;8924;-62
2022/08/12 04:28:12;;;;;;;;;15.25;14.50;;;;;16.36;46.90;100243.50;5120516;27;8828;-61
2022/08/12 04:30:40;;;;;;;;;15.50;12.50;;;;;16.38;47.49;100240.69;5139960;27;8860;-62
2022/08/12 04:33:08;;;;;;;;;13.50;12.25;;;;;16.38;47.40;100246.06;5139469;27;8821;-62
2022/08/12 04:35:37;;;;;;;;;13.00;13.00;;;;;16.40;47.30;100242.22;5138510;27;8979;-61
2022/08/12 04:38:05;;;;;;;;;14.75;14.25;;;;;16.43;47.46;100241.09;5137473;27;8837;-61
2022/08/12 04:40:32;;;;;;;;;17.50;15.50;;;;;16.47;47.07;100243.31;5117530;28;8861;-61
2022/08/12 04:43:00;;;;;;;;;14.00;12.50;;;;;16.52;46.67;100242.84;5116957;28;8859;-63
2022/08/12 04:45:28;;;;;;;;;18.25;16.50;;;;;16.58;47.16;100243.13;5116775;28;8860;-62
2022/08/12 04:47:56;;;;;;;;;23.00;20.50;;;;;16.64;46.54;100242.47;5116708;28;8856;-61
2022/08/12 04:50:24;;;;;;;;;21.25;19.50;;;;;16.69;46.63;100240.19;5116856;27;8796;-61
2022/08/12 04:53:02;;;;;;;;;16.00;16.00;;;;;16.76;46.21;100233.19;5116934;28;8831;-62
2022/08/12 04:55:30;;;;;;;;;17.50;17.50;;;;;16.82;46.25;100242.47;5116097;28;8914;-61
2022/08/12 04:57:59;;;;;;;;;15.00;14.00;;;;;16.87;46.60;100237.50;5117582;28;8924;-61
2022/08/12 05:00:27;;;;;;;;;21.00;16.50;;;;;16.91;46.24;100237.03;5137396;27;8926;-61
2022/08/12 05:02:55;;;;;;;;;19.75;18.75;;;;;16.96;46.02;100241.94;5138198;27;9487;-61
2022/08/12 05:05:23;;;;;;;;;21.50;19.75;;;;;17.03;46.11;100243.00;5138562;27;8872;-62
2022/08/12 05:07:51;;;;;;;;;18.75;17.50;;;;;17.10;46.45;100242.22;5138375;27;8839;-63
2022/08/12 05:10:21;;;;;;;;;15.25;15.00;;;;;17.16;46.22;100233.53;5118912;27;8812;-61
2022/08/12 05:13:02;;;;;;;;;20.00;17.50;;;;;17.25;46.10;100231.75;5117244;28;8866;-62
2022/08/12 05:15:30;;;;;;;;;13.00;13.00;;;;;17.34;46.54;100236.19;5117497;28;8824;-61
2022/08/12 05:17:58;;;;;;;;;13.50;13.00;;;;;17.42;46.20;100233.56;5117523;28;8944;-62
2022/08/12 05:20:47;;;;;;;;;18.00;16.75;;;;;17.51;45.84;100227.25;5117380;28;8822;-63
2022/08/12 05:23:15;;;;;;;;;15.50;14.50;;;;;17.61;46.06;100223.44;5117735;28;8840;-62
2022/08/12 05:25:44;;;;;;;;;19.00;16.75;;;;;17.70;45.53;100229.72;5117588;28;8890;-63
2022/08/12 05:28:12;;;;;;;;;19.00;16.00;;;;;17.81;45.74;100227.59;5116957;27;8892;-63
2022/08/12 05:30:41;;;;;;;;;15.50;14.50;;;;;17.95;45.32;100232.38;5136592;27;9614;-62
2022/08/12 05:33:09;;;;;;;;;17.00;16.50;;;;;18.09;45.42;100226.38;5137225;27;8806;-61
2022/08/12 05:35:38;;;;;;;;;16.50;15.50;;;;;18.17;45.37;100223.72;5136694;27;9001;-63
2022/08/12 05:40:51;;;;;;;;;15.50;14.50;;;;;18.37;45.19;100227.00;5116309;28;8849;-62
2022/08/12 05:43:19;;;;;;;;;12.00;11.50;;;;;18.48;44.85;100229.38;5116532;28;8920;-61
2022/08/12 05:45:48;;;;;;;;;20.00;15.75;;;;;18.57;44.81;100234.63;5117135;28;8969;-62
2022/08/12 05:48:15;;;;;;;;;18.75;18.50;;;;;18.68;44.62;100234.31;5115623;27;8867;-62
2022/08/12 05:50:44;;;;;;;;;19.00;18.50;;;;;18.77;44.50;100243.25;5132614;27;8844;-62
2022/08/12 05:53:12;;;;;;;;;16.25;15.25;;;;;18.88;44.75;100245.66;5125576;27;8806;-62
2022/08/12 05:55:40;;;;;;;;;18.00;17.00;;;;;19.03;44.26;100241.28;5135367;27;8967;-62
2022/08/12 05:58:08;;;;;;;;;16.75;16.50;;;;;19.21;44.15;100245.50;5135819;27;8829;-62
2022/08/12 06:00:35;;;;;;;;;16.50;15.00;;;;;19.43;43.71;100239.41;5130611;27;8828;-62
2022/08/12 06:03:04;;;;;;;;;14.25;14.00;;;;;19.65;43.51;100238.69;5118226;27;8821;-63
2022/08/12 06:05:33;;;;;;;;;16.50;16.50;;;;;19.85;43.20;100234.59;5134504;27;8818;-62
2022/08/12 06:08:21;;;;;;;;;16.25;16.25;;;;;20.04;43.44;100234.16;5114015;28;8875;-62
2022/08/12 06:10:49;;;;;;;;;18.60;13.80;;;;;20.22;42.99;100236.66;5114815;27;8844;-63
2022/08/12 06:13:17;;;;;;;;;14.80;11.60;;;;;20.37;42.80;100230.34;5114230;28;8824;-62
2022/08/12 06:16:06;;;;;;;;;17.40;16.00;;;;;20.55;42.55;100233.63;5114631;28;8848;-62
2022/08/12 06:18:33;;;;;;;;;20.40;20.40;;;;;20.71;42.61;100230.81;5131266;27;8825;-63
2022/08/12 06:21:01;;;;;;;;;17.40;17.00;;;;;20.90;42.26;100238.50;5121606;27;8965;-62
2022/08/12 06:23:29;;;;;;;;;17.60;16.40;;;;;21.02;42.32;100231.66;5135040;27;8868;-63
2022/08/12 06:25:57;;;;;;;;;18.00;17.80;;;;;21.16;42.08;100231.69;5135807;27;8838;-62
2022/08/12 06:28:25;;;;;;;;;20.60;20.40;;;;;21.28;41.84;100242.94;5130970;27;8827;-62
2022/08/12 06:30:52;;;;;;;;;21.40;21.20;;;;;21.39;41.47;100235.19;5116703;27;8954;-63
2022/08/12 06:33:43;;;;;;;;;29.00;25.40;;;;;21.53;41.53;100238.94;5118631;27;8984;-63
2022/08/12 06:36:32;;;;;;;;;22.00;21.00;;;;;21.65;41.65;100242.91;5134932;27;8957;-62
2022/08/12 06:39:00;;;;;;;;;20.00;18.60;;;;;21.80;41.19;100243.81;5133135;27;8856;-62
2022/08/12 06:44:33;;;;;;;;;18.60;18.60;;;;;22.13;41.19;100234.25;5131815;27;8855;-62
2022/08/12 06:47:00;;;;;;;;;20.20;18.60;;;;;22.28;40.67;100233.22;5114014;28;8963;-62
2022/08/12 06:49:35;;;;;;;;;12.80;11.80;;;;;22.41;40.50;100233.41;5133624;27;8826;-62
2022/08/12 06:52:03;;;;;;;;;22.80;20.40;;;;;22.59;40.96;100235.69;5132080;27;8928;-62
2022/08/12 06:54:33;;;;;;;;;16.40;15.00;;;;;22.79;40.40;100231.31;5134128;27;8876;-62
2022/08/12 06:57:01;;;;;;;;;20.40;19.80;;;;;22.93;39.78;100231.25;5120872;27;9469;-63
2022/08/12 06:59:40;;;;;;;;;20.20;19.60;;;;;23.11;39.73;100226.22;5129174;27;8964;-62
2022/08/12 07:02:09;;;;;;;;;34.60;32.80;;;;;23.29;39.94;100223.06;5133091;27;8839;-62
2022/08/12 07:04:38;;;;;;;;;32.20;29.80;;;;;23.45;39.55;100225.50;5132680;27;8929;-63
2022/08/12 07:07:06;;;;;;;;;20.80;17.60;;;;;23.62;39.06;100235.03;5115103;27;8845;-62
2022/08/12 07:09:35;;;;;;;;;25.80;22.20;;;;;23.76;39.33;100225.94;5115556;28;8804;-62
2022/08/12 07:12:23;;;;;;;;;24.80;23.60;;;;;23.89;39.08;100223.34;5116860;28;8804;-63
2022/08/12 07:14:54;;;;;;;;;21.40;20.20;;;;;24.00;38.91;100228.19;5130782;27;8886;-62
2022/08/12 07:17:22;;;;;;;;;19.80;19.40;;;;;24.14;39.02;100229.94;5126873;27;8850;-62
2022/08/12 07:19:50;;;;;;;;;21.00;20.80;;;;;24.31;38.47;100231.28;5129825;27;8836;-62
2022/08/12 07:22:21;;;;;;;;;18.00;17.40;;;;;24.47;38.36;100228.22;5134194;27;8965;-62
2022/08/12 07:25:29;;;;;;;;;23.80;22.40;;;;;24.64;38.66;100224.94;5130749;27;8820;-62
2022/08/12 07:27:39;;;;;;;;;21.40;19.60;;;;;24.82;38.17;100232.53;5117624;27;8832;-62
2022/08/12 07:30:07;;;;;;;;;20.60;19.80;;;;;24.96;37.60;100239.72;5118483;28;8820;-63
2022/08/12 07:32:35;;;;;;;;;21.00;19.60;;;;;25.11;37.85;100234.91;5118270;28;9611;-62
2022/08/12 07:35:03;;;;;;;;;18.80;18.20;;;;;25.25;38.00;100233.91;5118389;28;8842;-62
2022/08/12 07:37:33;;;;;;;;;11.60;10.80;;;;;25.40;37.72;100237.28;5117906;28;8848;-62
2022/08/12 07:40:01;;;;;;;;;15.00;13.40;;;;;25.56;37.88;100239.56;5136436;27;8841;-62
2022/08/12 07:42:30;;;;;;;;;8.80;8.80;;;;;25.71;37.05;100246.47;5138446;27;8829;-62
2022/08/12 07:44:58;;;;;;;;;13.40;13.20;;;;;25.85;37.40;100232.63;5138786;27;8841;-63
2022/08/12 07:47:26;;;;;;;;;11.00;11.00;;;;;26.02;36.83;100239.31;5122136;27;8870;-63
2022/08/12 07:49:55;;;;;;;;;11.40;11.00;;;;;26.15;36.76;100239.28;5117841;28;8865;-62
2022/08/12 07:52:32;;;;;;;;;14.40;14.40;;;;;26.32;37.07;100231.44;5116836;28;8831;-63
2022/08/12 07:55:00;;;;;;;;;14.40;12.40;;;;;26.45;36.14;100232.25;5118855;27;9568;-62
2022/08/12 07:57:28;;;;;;;;;12.60;12.20;;;;;26.58;36.80;100237.66;5118102;28;8948;-62
2022/08/12 07:59:56;;;;;;;;;13.40;11.60;;;;;26.72;36.20;100243.91;5118654;27;8854;-62
2022/08/12 08:02:24;;;;;;;;;9.20;9.20;;;;;26.86;36.10;100235.41;5138302;27;8966;-63
2022/08/12 08:04:56;;;;;;;;;9.80;9.80;;;;;26.99;36.40;100232.59;5133596;27;8852;-62
2022/08/12 08:07:24;;;;;;;;;8.00;8.00;;;;;27.14;35.98;100237.78;5135080;27;8882;-62
2022/08/12 08:09:56;;;;;;;;;9.00;9.00;;;;;27.30;36.21;100240.81;5131119;27;8801;-62
2022/08/12 08:15:11;;;;;;;;;8.00;8.00;;;;;27.56;35.33;100226.91;5117974;28;8846;-62
2022/08/12 08:17:39;;;;;;;;;6.80;5.00;;;;;27.70;35.00;100233.94;5120719;27;8922;-62
2022/08/12 08:20:08;;;;;;;;;7.80;6.40;;;;;27.83;35.05;100224.81;5124384;27;8841;-62
2022/08/12 08:22:39;;;;;;;;;8.80;8.00;;;;;27.95;34.67;100228.47;5137095;27;8837;-61
2022/08/12 08:25:09;;;;;;;;;8.20;8.20;;;;;28.07;34.85;100230.22;5137402;27;8834;-63
2022/08/12 08:27:57;;;;;;;;;9.20;7.80;;;;;28.22;34.53;100218.91;5135162;27;8856;-62
2022/08/12 08:30:24;;;;;;;;;7.40;7.40;;;;;28.37;34.34;100227.59;5138442;27;8968;-62
2022/08/12 08:32:52;;;;;;;;;7.00;7.00;;;;;28.48;34.00;100226.81;5138112;27;9462;-62
2022/08/12 08:35:21;;;;;;;;;8.00;7.40;;;;;28.61;33.69;100223.91;5136808;27;9728;-62
2022/08/12 08:37:52;;;;;;;;;5.00;5.00;;;;;28.73;33.92;100231.13;5135059;27;8810;-62
2022/08/12 08:43:06;;;;;;;;;5.00;5.00;;;;;28.98;33.10;100231.84;5116696;28;9523;-62
2022/08/12 08:45:33;;;;;;;;;8.20;7.60;;;;;29.08;33.00;100232.13;5115841;28;8844;-62
2022/08/12 08:48:01;;;;;;;;;6.20;6.20;;;;;29.16;33.45;100226.31;5127007;27;8837;-62
2022/08/12 08:50:29;;;;;;;;;6.60;6.00;;;;;29.22;33.36;100221.78;5136780;27;8829;-63
2022/08/12 08:52:58;;;;;;;;;8.60;8.60;;;;;29.25;33.13;100224.88;5136946;27;9500;-62
2022/08/12 08:55:25;;;;;;;;;7.60;7.60;;;;;29.28;32.92;100221.66;5137842;27;8834;-63
2022/08/12 08:58:14;;;;;;;;;5.00;5.00;;;;;29.33;32.99;100218.19;5131027;27;8970;-62
2022/08/12 09:00:42;;;;;;;;;5.40;5.40;;;;;29.42;32.70;100227.78;5116557;28;8920;-63
2022/08/12 09:03:15;;;;;;;;;5.60;5.60;;;;;29.51;32.10;100212.66;5116697;28;8835;-63
2022/08/12 09:06:04;;;;;;;;;5.20;5.00;;;;;29.59;31.84;100220.56;5116219;28;8856;-62
2022/08/12 09:08:33;;;;;;;;;5.60;5.00;;;;;29.65;32.18;100212.19;5124847;27;8810;-62
2022/08/12 09:13:26;;;;;;;;;3.40;2.20;;;;;29.75;32.13;100223.44;5129369;27;8823;-62
2022/08/12 09:14:08;;;;;;;;;6.40;6.40;;;;;29.90;31.58;100223.78;5132227;27;8836;-62
2022/08/12 09:16:45;;;;;;;;;6.00;6.00;;;;;29.97;31.34;100219.00;5136536;27;8850;-62
2022/08/12 09:19:17;;;;;;;;;8.80;7.20;;;;;30.05;31.73;100218.63;5137387;27;8968;-62
2022/08/12 09:21:56;;;;;;;;;9.40;8.40;;;;;30.14;31.22;100221.88;5136885;27;8845;-63
2022/08/12 09:24:27;;;;;;;;;6.60;5.40;;;;;30.22;31.42;100210.50;5125983;27;8890;-62
2022/08/12 09:26:59;;;;;;;;;6.00;5.80;;;;;30.28;30.86;100215.03;5116873;28;8843;-61
2022/08/12 09:29:29;;;;;;;;;7.00;7.00;;;;;30.31;30.89;100215.38;5116515;28;8852;-62
2022/08/12 09:32:17;;;;;;;;;5.80;5.80;;;;;30.44;30.65;100217.88;5116522;28;8858;-63
2022/08/12 09:35:05;;;;;;;;;6.60;6.40;;;;;30.56;30.38;100207.66;5116470;28;8852;-61
2022/08/12 09:37:48;;;;;;;;;7.00;7.00;;;;;30.62;30.18;100212.22;5115755;28;8820;-62
2022/08/12 09:40:26;;;;;;;;;5.00;5.00;;;;;30.71;30.50;100205.22;5119795;27;8820;-61
2022/08/12 09:45:59;;;;;;;;;6.80;6.80;;;;;31.05;29.89;100207.00;5136458;27;8841;-62
2022/08/12 09:48:46;;;;;;;;;4.80;4.00;;;;;31.44;29.58;100208.78;5136722;27;8880;-62
2022/08/12 09:51:23;;;;;;;;;6.00;6.00;;;;;31.88;29.01;100194.09;5118926;27;8931;-62
2022/08/12 09:54:04;;;;;;;;;6.00;6.00;;;;;32.49;28.01;100188.31;5115166;28;8846;-64
2022/08/12 09:56:53;;;;;;;;;5.80;5.80;;;;;33.04;27.08;100187.03;5115492;28;8839;-61
2022/08/12 09:59:27;;;;;;;;;6.60;6.00;;;;;33.40;26.92;100185.44;5134438;27;8833;-62
2022/08/12 10:02:15;;;;;;;;;7.00;6.60;;;;;33.77;25.82;100197.34;5135686;27;8865;-62
2022/08/12 10:05:03;;;;;;;;;5.80;5.80;;;;;34.04;26.29;100184.25;5135803;27;8891;-62
2022/08/12 10:07:31;;;;;;;;;8.00;7.00;;;;;34.37;25.74;100186.66;5129833;27;8835;-62
2022/08/12 10:10:07;;;;;;;;;8.00;7.20;;;;;34.79;25.05;100179.91;5129852;27;8826;-64
2022/08/12 10:15:43;;;;;;;;;7.00;7.00;;;;;35.73;24.85;100177.50;5136131;27;8845;-62
2022/08/12 10:18:31;;;;;;;;;6.60;6.60;;;;;36.01;23.94;100163.00;5134699;27;8838;-62
2022/08/12 10:21:02;;;;;;;;;8.00;8.00;;;;;36.24;23.58;100166.84;5129731;27;8806;-62
2022/08/12 10:23:30;;;;;;;;;7.20;7.20;;;;;36.42;23.93;100165.38;5128627;27;8835;-63
2022/08/12 10:32:13;;;;;;;;;7.60;7.40;;;;;37.15;22.99;100156.91;5113707;28;8882;-62
2022/08/12 10:34:49;;;;;;;;;5.00;4.60;;;;;37.56;22.84;100154.63;5114016;28;8982;-63
2022/08/12 10:37:23;;;;;;;;;5.60;5.40;;;;;37.96;22.41;100137.53;5113820;28;8881;-63
2022/08/12 10:40:11;;;;;;;;;7.00;6.40;;;;;38.34;22.14;100142.06;5112933;27;8820;-63
2022/08/12 10:45:32;;;;;;;;;6.00;6.00;;;;;38.66;21.49;100140.25;5112880;28;8859;-61
2022/08/12 10:48:04;;;;;;;;;6.40;6.40;;;;;38.68;21.56;100132.41;5113034;28;9534;-61
2022/08/12 10:50:52;;;;;;;;;5.20;5.20;;;;;38.73;21.27;100131.50;5119173;27;8814;-61
2022/08/12 10:53:32;;;;;;;;;5.00;5.00;;;;;38.85;21.38;100121.59;5125554;27;8836;-61
2022/08/12 10:56:12;;;;;;;;;6.00;6.00;;;;;38.98;21.54;100126.38;5112093;28;8828;-60
2022/08/12 10:58:40;;;;;;;;;4.40;3.40;;;;;39.19;21.31;100118.53;5126449;27;8798;-60
2022/08/12 11:01:14;;;;;;;;;7.20;6.20;;;;;39.52;20.81;100114.63;5134934;27;8852;-63
2022/08/12 11:04:02;;;;;;;;;5.20;5.20;;;;;39.87;21.03;100113.97;5128680;27;8909;-63
2022/08/12 11:06:52;;;;;;;;;5.00;5.00;;;;;40.01;19.85;100101.66;5113942;28;8839;-63
2022/08/12 11:09:40;;;;;;;;;4.80;4.80;;;;;40.11;20.17;100104.25;5125607;27;8853;-63
2022/08/12 11:12:29;;;;;;;;;3.20;3.20;;;;;40.43;20.19;100097.69;5127560;27;9767;-66
2022/08/12 11:15:17;;;;;;;;;3.00;3.00;;;;;40.67;19.82;100090.75;5130847;27;9849;-63
2022/08/12 11:17:50;;;;;;;;;4.00;4.00;;;;;40.76;19.99;100088.84;5132248;27;8865;-63
2022/08/12 11:20:22;;;;;;;;;5.80;5.40;;;;;40.94;18.97;100093.44;5132686;27;8872;-62
2022/08/12 11:22:57;;;;;;;;;4.80;4.00;;;;;40.94;19.39;100081.44;5120348;28;8851;-62
2022/08/12 11:25:26;;;;;;;;;4.80;4.40;;;;;41.20;19.19;100083.28;5112708;28;8836;-62
2022/08/12 11:28:14;;;;;;;;;5.00;5.00;;;;;41.41;19.39;100078.84;5113479;28;8847;-63
2022/08/12 11:30:42;;;;;;;;;3.40;3.40;;;;;41.63;19.28;100078.75;5113992;28;8824;-63
2022/08/12 11:33:10;;;;;;;;;2.20;2.00;;;;;41.82;18.79;100075.72;5124908;27;9598;-63
2022/08/12 11:35:58;;;;;;;;;5.00;5.00;;;;;42.03;18.29;100069.22;5133485;27;8850;-63
2022/08/12 11:38:26;;;;;;;;;4.80;4.80;;;;;42.14;18.18;100073.41;5134212;27;8833;-62
2022/08/12 11:40:54;;;;;;;;;3.40;3.40;;;;;42.11;18.26;100063.63;5132203;27;8860;-62
2022/08/12 11:43:24;;;;;;;;;5.00;5.00;;;;;42.19;18.11;100067.66;5130038;27;8809;-62
2022/08/12 11:45:57;;;;;;;;;5.20;5.20;;;;;42.06;18.42;100060.16;5132122;27;8829;-60
2022/08/12 11:48:25;;;;;;;;;5.00;5.00;;;;;41.93;18.56;100056.34;5134648;27;8888;-60
2022/08/12 11:50:57;;;;;;;;;3.00;3.00;;;;;41.88;18.21;100058.47;5134509;27;8865;-60
2022/08/12 11:53:25;;;;;;;;;5.20;5.20;;;;;42.04;18.37;100056.88;5135446;27;8829;-61
2022/08/12 11:56:13;;;;;;;;;6.00;6.00;;;;;42.01;17.93;100057.53;5128178;28;8828;-60
2022/08/12 11:58:41;;;;;;;;;3.00;3.00;;;;;42.18;18.41;100046.38;5114087;28;8828;-60
2022/08/12 12:01:28;;;;;;;;;3.40;3.40;;;;;42.32;17.69;100047.06;5113577;28;8998;-60
2022/08/12 12:04:16;;;;;;;;;5.00;4.00;;;;;42.39;17.75;100041.81;5113688;28;8847;-60
2022/08/12 12:06:58;;;;;;;;;4.00;4.00;;;;;42.55;17.64;100057.00;5116947;28;8839;-60
2022/08/12 12:09:34;;;;;;;;;4.00;4.00;;;;;42.60;17.39;100048.41;5133737;27;8843;-60
2022/08/12 12:12:19;;;;;;;;;5.60;4.60;;;;;42.60;17.32;100049.25;5138137;27;8904;-60
2022/08/12 12:14:48;;;;;;;;;4.20;4.00;;;;;42.80;17.29;100050.56;5138644;27;8833;-60
2022/08/12 12:17:22;;;;;;;;;4.00;4.00;;;;;42.90;17.09;100047.41;5137992;27;8904;-60
2022/08/12 12:19:50;;;;;;;;;4.20;4.20;;;;;42.85;17.27;100045.59;5137993;27;8809;-60
2022/08/12 12:22:17;;;;;;;;;4.40;4.00;;;;;42.80;16.67;100044.97;5134570;27;8963;-61
2022/08/12 12:24:57;;;;;;;;;4.00;4.00;;;;;42.72;16.62;100045.78;5117840;28;8843;-61
2022/08/12 12:27:39;;;;;;;;;4.60;4.40;;;;;42.76;17.26;100046.78;5117854;28;8836;-60
2022/08/12 12:30:26;;;;;;;;;5.00;5.00;;;;;42.67;16.43;100043.97;5116690;28;8852;-60
2022/08/12 12:32:56;;;;;;;;;5.00;4.60;;;;;42.35;17.24;100038.84;5117159;28;8839;-59
2022/08/12 12:35:25;;;;;;;;;3.20;3.20;;;;;42.24;16.58;100039.47;5110735;28;8842;-60
2022/08/12 12:38:13;;;;;;;;;4.80;4.80;;;;;42.37;16.75;100030.06;5095412;28;8880;-60
2022/08/12 12:40:41;;;;;;;;;4.00;4.00;;;;;42.45;16.63;100037.66;5115286;28;8925;-60
2022/08/12 12:43:10;;;;;;;;;4.80;4.00;;;;;42.34;16.83;100025.16;5115566;28;8831;-60
2022/08/12 12:45:40;;;;;;;;;5.20;3.80;;;;;42.30;16.71;100021.34;5116020;28;8929;-59
2022/08/12 12:48:12;;;;;;;;;5.00;3.80;;;;;42.22;17.15;100014.59;5115659;28;8860;-59
2022/08/12 12:50:40;;;;;;;;;4.00;3.60;;;;;42.01;17.03;100016.34;5115824;28;9882;-63
2022/08/12 12:53:20;;;;;;;;;2.00;2.00;;;;;41.75;17.29;100013.81;5114927;28;8978;-63
2022/08/12 12:56:11;;;;;;;;;4.60;4.60;;;;;41.36;18.01;100010.97;5114972;28;8856;-60
2022/08/12 12:58:39;;;;;;;;;4.00;4.00;;;;;41.07;17.58;100011.47;5098892;28;8905;-60
2022/08/12 13:01:10;;;;;;;;;5.00;4.00;;;;;40.69;18.35;100009.34;5096719;28;9633;-60
2022/08/12 13:03:56;;;;;;;;;2.00;1.20;;;;;40.36;18.11;100011.53;5096402;28;8841;-61
2022/08/12 13:06:29;;;;;;;;;4.00;3.20;;;;;40.01;18.56;100006.72;5112348;28;8859;-61
2022/08/12 13:08:58;;;;;;;;;5.00;5.00;;;;;39.54;18.68;100007.16;5112923;28;8824;-60
2022/08/12 13:11:30;;;;;;;;;4.00;4.00;;;;;39.14;19.08;100002.31;5095875;28;8829;-59
2022/08/12 13:14:08;;;;;;;;;3.00;3.00;;;;;38.66;19.24;99978.66;5095560;28;9495;-60
2022/08/12 13:16:42;;;;;;;;;5.00;5.00;;;;;38.25;19.39;99987.94;5093619;28;8868;-60
2022/08/12 13:19:10;;;;;;;;;4.60;4.20;;;;;37.92;19.42;99989.75;5094050;28;9558;-60
2022/08/12 13:22:15;;;;;;;;;3.40;3.40;;;;;37.61;20.19;99994.06;5094252;28;8872;-60
2022/08/12 13:24:30;;;;;;;;;5.20;5.20;;;;;37.31;19.70;99997.19;5094756;28;9094;-61
2022/08/12 13:26:58;;;;;;;;;4.60;4.00;;;;;37.16;20.07;99986.22;5098445;28;8856;-61
2022/08/12 13:29:29;;;;;;;;;5.40;5.00;;;;;37.05;19.93;99986.59;5094835;28;8829;-63
2022/08/12 13:32:01;;;;;;;;;4.60;4.60;;;;;36.95;20.61;99995.84;5093972;28;8830;-60
2022/08/12 13:34:51;;;;;;;;;6.00;6.00;;;;;36.95;20.17;99990.31;5112811;27;8909;-66
2022/08/12 13:37:31;;;;;;;;;5.20;5.00;;;;;36.99;19.74;99996.94;5136419;27;8830;-60
2022/08/12 13:40:18;;;;;;;;;7.00;6.00;;;;;36.89;19.71;99988.72;5135845;27;8865;-61
2022/08/12 13:42:48;;;;;;;;;6.00;6.00;;;;;36.77;19.84;99993.81;5136330;27;8818;-61
2022/08/12 13:45:17;;;;;;;;;5.20;5.20;;;;;36.65;20.19;99992.53;5136616;27;9544;-62